createdAt,value
2022-10-11T00:01:37.193Z,4.20
2022-10-11T00:06:43.561Z,2.70
2022-10-11T00:11:46.820Z,4.50
2022-10-11T00:16:50.179Z,4.10
2022-10-11T00:21:53.900Z,5.30
2022-10-11T00:26:57.213Z,4.10
2022-10-11T00:32:00.528Z,3.60
2022-10-11T00:37:03.872Z,4.10
2022-10-11T00:42:16.362Z,3.70
2022-10-11T00:47:24.750Z,4.60
2022-10-11T00:52:37.128Z,3.00
2022-10-11T00:57:48.676Z,3.70
2022-10-11T01:02:52.159Z,3.90
2022-10-11T01:07:56.167Z,4.40
2022-10-11T01:13:30.505Z,4.10
2022-10-11T01:18:52.351Z,4.70
2022-10-11T01:24:25.992Z,5.40
2022-10-11T01:29:50.557Z,4.70
2022-10-11T01:35:06.624Z,4.40
2022-10-11T01:40:19.359Z,5.30
2022-10-11T01:45:23.351Z,5.60
2022-10-11T01:50:41.718Z,5.00
2022-10-11T01:56:03.560Z,5.30
2022-10-11T02:01:33.963Z,5.00
2022-10-11T02:06:56.726Z,5.60
2022-10-11T02:12:08.836Z,3.90
2022-10-11T02:17:22.863Z,5.10
2022-10-11T02:22:35.990Z,4.90
2022-10-11T02:27:41.713Z,5.60
2022-10-11T02:32:48.384Z,5.30
2022-10-11T02:38:16.023Z,6.00
2022-10-11T02:43:43.116Z,6.10
2022-10-11T02:48:46.360Z,6.60
2022-10-11T02:53:49.734Z,6.20
2022-10-11T02:58:53.052Z,5.70
2022-10-11T03:03:56.351Z,4.70
2022-10-11T03:08:59.663Z,6.50
2022-10-11T03:14:03.269Z,4.90
2022-10-11T03:19:06.908Z,6.10
2022-10-11T03:24:10.187Z,7.00
2022-10-11T03:29:13.501Z,6.30
2022-10-11T03:34:16.815Z,7.20
2022-10-11T03:39:20.455Z,7.00
2022-10-11T03:44:23.801Z,4.80
2022-10-11T03:49:27.363Z,5.70
2022-10-11T03:54:30.678Z,6.00
2022-10-11T03:59:34.041Z,5.70
2022-10-11T04:04:37.672Z,6.90
2022-10-11T04:09:41.043Z,7.60
2022-10-11T04:14:44.402Z,8.10
2022-10-11T04:19:47.766Z,6.10
2022-10-11T04:24:51.145Z,5.40
2022-10-11T04:29:54.737Z,5.40
2022-10-11T04:34:58.110Z,7.10
2022-10-11T04:40:01.441Z,4.40
2022-10-11T04:45:06.049Z,6.50
2022-10-11T04:50:09.374Z,6.70
2022-10-11T04:55:12.649Z,5.70
2022-10-11T05:00:16.863Z,6.30
2022-10-11T05:05:20.122Z,7.60
2022-10-11T05:10:23.539Z,6.90
2022-10-11T05:15:27.057Z,7.10
2022-10-11T05:20:30.592Z,6.90
2022-10-11T05:25:33.893Z,8.60
2022-10-11T05:30:37.180Z,7.40
2022-10-11T05:35:40.611Z,6.50
2022-10-11T05:40:44.329Z,7.50
2022-10-11T05:45:47.742Z,7.00
2022-10-11T05:50:51.534Z,7.40
2022-10-11T05:55:55.188Z,7.00
2022-10-11T06:00:58.610Z,8.30
2022-10-11T06:06:05.273Z,7.30
2022-10-11T06:11:25.599Z,8.60
2022-10-11T06:16:28.912Z,6.70
2022-10-11T06:21:33.148Z,7.70
2022-10-11T06:26:36.551Z,7.50
2022-10-11T06:31:39.867Z,8.20
2022-10-11T06:36:43.205Z,7.10
2022-10-11T06:41:46.699Z,6.40
2022-10-11T06:46:50.005Z,6.90
2022-10-11T06:51:53.361Z,6.50
2022-10-11T06:56:56.657Z,5.50
2022-10-11T07:01:59.943Z,6.90
2022-10-11T07:07:03.284Z,4.60
2022-10-11T07:12:07.992Z,4.70
2022-10-11T07:17:11.412Z,3.40
2022-10-11T07:22:14.727Z,2.90
2022-10-11T07:27:18.137Z,2.00
2022-10-11T07:32:21.554Z,2.80
2022-10-11T07:37:25.180Z,2.40
2022-10-11T07:42:30.426Z,2.10
2022-10-11T07:47:34.548Z,2.40
2022-10-11T07:52:38.690Z,2.20
2022-10-11T07:57:42.701Z,2.00
2022-10-11T08:02:46.274Z,2.30
2022-10-11T08:07:49.647Z,1.50
2022-10-11T08:12:54.153Z,1.80
2022-10-11T08:17:57.705Z,1.90
2022-10-11T08:23:01.239Z,1.30
2022-10-11T08:28:05.389Z,1.00
2022-10-11T08:33:08.826Z,1.30
2022-10-11T08:38:13.901Z,1.30
2022-10-11T08:43:49.289Z,1.50
2022-10-11T08:48:53.518Z,1.20
2022-10-11T08:54:31.539Z,2.10
2022-10-11T09:00:14.898Z,1.30
2022-10-11T09:05:20.010Z,1.30
2022-10-11T09:10:53.149Z,1.10
2022-10-11T09:16:15.204Z,1.30
2022-10-11T09:21:54.894Z,0.90
2022-10-11T09:27:09.861Z,1.00
2022-10-11T09:32:23.511Z,1.00
2022-10-11T09:38:03.195Z,1.10
2022-10-11T09:43:09.451Z,1.30
2022-10-11T09:48:29.149Z,1.90
2022-10-11T09:54:00.108Z,0.70
2022-10-11T09:59:33.691Z,0.90
2022-10-11T10:04:55.306Z,0.60
2022-10-11T10:09:59.829Z,1.50
2022-10-11T10:15:20.128Z,0.80
2022-10-11T10:20:35.619Z,1.00
2022-10-11T10:25:43.554Z,0.80
2022-10-11T10:30:58.417Z,0.80
2022-10-11T10:36:19.446Z,0.70
2022-10-11T10:41:22.863Z,0.90
2022-10-11T10:46:41.637Z,0.80
2022-10-11T10:52:12.490Z,0.60
2022-10-11T10:57:28.960Z,1.10
2022-10-11T11:02:47.437Z,1.00
2022-10-11T11:07:59.082Z,1.30
2022-10-11T11:13:43.724Z,1.20
2022-10-11T11:19:05.649Z,1.40
2022-10-11T11:24:20.104Z,0.80
2022-10-11T11:29:54.499Z,0.90
2022-10-11T11:35:21.185Z,1.10
2022-10-11T11:40:43.273Z,1.40
2022-10-11T11:45:56.844Z,1.00
2022-10-11T11:51:21.272Z,0.90
2022-10-11T11:57:11.716Z,1.30
2022-10-11T12:02:45.844Z,1.30
2022-10-11T12:08:24.345Z,1.10
2022-10-11T12:13:35.580Z,1.50
2022-10-11T12:18:56.810Z,0.80
2022-10-11T12:24:22.553Z,1.10
2022-10-11T12:29:41.589Z,1.10
2022-10-11T12:34:45.564Z,0.90
2022-10-11T12:39:55.027Z,1.00
2022-10-11T12:45:13.807Z,0.90
2022-10-11T12:50:44.483Z,0.80
2022-10-11T12:56:09.635Z,1.10
2022-10-11T13:01:22.834Z,1.20
2022-10-11T13:06:33.574Z,0.70
2022-10-11T13:12:02.984Z,1.10
2022-10-11T13:17:32.343Z,1.50
2022-10-11T13:22:40.971Z,0.90
2022-10-11T13:27:44.974Z,1.00
2022-10-11T13:32:48.908Z,2.00
2022-10-11T13:37:52.652Z,0.90
2022-10-11T13:42:57.056Z,1.00
2022-10-11T13:48:00.604Z,0.90
2022-10-11T13:53:24.801Z,1.00
2022-10-11T13:58:38.969Z,0.70
2022-10-11T14:04:02.893Z,0.90
2022-10-11T14:09:06.823Z,1.00
2022-10-11T14:14:36.009Z,1.40
2022-10-11T14:19:40.451Z,2.30
2022-10-11T14:24:48.603Z,3.70
2022-10-11T14:30:12.986Z,1.20
2022-10-11T14:35:28.355Z,0.90
2022-10-11T14:40:32.190Z,2.90
2022-10-11T14:45:35.505Z,2.80
2022-10-11T14:50:48.135Z,3.80
2022-10-11T14:55:52.103Z,4.30
2022-10-11T15:00:55.372Z,3.70
2022-10-11T15:05:58.669Z,7.10
2022-10-11T15:11:02.407Z,8.80
2022-10-11T15:16:07.095Z,12.00
2022-10-11T15:21:14.952Z,7.10
2022-10-11T15:26:24.180Z,3.80
2022-10-11T15:31:27.535Z,1.60
2022-10-11T15:36:31.662Z,1.10
2022-10-11T15:41:36.500Z,0.80
2022-10-11T15:46:41.826Z,1.60
2022-10-11T15:51:45.180Z,1.00
2022-10-11T15:56:48.491Z,0.60
2022-10-11T16:01:51.896Z,0.80
2022-10-11T16:06:55.333Z,1.20
2022-10-11T16:11:58.739Z,0.70
2022-10-11T16:17:04.244Z,1.00
2022-10-11T16:22:07.547Z,1.20
2022-10-11T16:27:14.178Z,2.40
2022-10-11T16:32:20.842Z,1.10
2022-10-11T16:37:24.274Z,1.40
2022-10-11T16:42:27.818Z,1.90
2022-10-11T16:47:31.746Z,2.10
2022-10-11T16:52:35.124Z,2.00
2022-10-11T16:57:38.736Z,2.40
2022-10-11T17:02:42.085Z,3.00
2022-10-11T17:07:45.397Z,3.00
2022-10-11T17:12:50.293Z,3.30
2022-10-11T17:17:56.240Z,2.80
2022-10-11T17:22:59.736Z,2.80
2022-10-11T17:28:03.149Z,5.70
2022-10-11T17:33:06.967Z,13.00
2022-10-11T17:38:10.552Z,11.60
2022-10-11T17:43:15.985Z,19.80
2022-10-11T17:48:19.267Z,38.50
2022-10-11T17:53:23.636Z,43.00
2022-10-11T17:58:27.298Z,30.80
2022-10-11T18:03:30.844Z,18.80
2022-10-11T18:08:40.148Z,12.90
2022-10-11T18:13:47.431Z,9.30
2022-10-11T18:18:51.013Z,9.60
2022-10-11T18:23:54.435Z,7.70
2022-10-11T18:28:59.078Z,5.30
2022-10-11T18:34:05.246Z,5.70
2022-10-11T18:39:14.399Z,6.50
2022-10-11T18:44:17.807Z,7.30
2022-10-11T18:49:21.036Z,8.40
2022-10-11T18:54:24.301Z,8.00
2022-10-11T18:59:27.952Z,7.10
2022-10-11T19:04:34.492Z,7.00
2022-10-11T19:09:38.312Z,4.60
2022-10-11T19:14:42.637Z,5.20
2022-10-11T19:19:46.111Z,4.70
2022-10-11T19:24:49.403Z,3.90
2022-10-11T19:29:53.040Z,4.70
2022-10-11T19:34:56.354Z,3.40
2022-10-11T19:40:01.590Z,3.70
2022-10-11T19:45:06.277Z,3.70
2022-10-11T19:50:10.542Z,4.40
2022-10-11T19:55:14.104Z,4.40
2022-10-11T20:00:18.747Z,4.30
2022-10-11T20:05:21.968Z,3.20
2022-10-11T20:10:25.885Z,4.20
2022-10-11T20:15:29.194Z,5.20
2022-10-11T20:20:32.602Z,4.80
2022-10-11T20:25:35.916Z,4.20
2022-10-11T20:30:43.778Z,4.00
2022-10-11T20:36:04.558Z,3.50
2022-10-11T20:41:21.383Z,3.60
2022-10-11T20:46:34.459Z,3.40
2022-10-11T20:51:41.871Z,2.80
2022-10-11T20:56:45.457Z,4.60
2022-10-11T21:01:49.224Z,4.50
2022-10-11T21:06:52.789Z,3.50
2022-10-11T21:11:56.092Z,3.70
2022-10-11T21:16:59.398Z,4.00
2022-10-11T21:22:02.825Z,3.60
2022-10-11T21:27:06.113Z,4.00
2022-10-11T21:32:13.570Z,4.50
2022-10-11T21:37:17.882Z,3.20
2022-10-11T21:42:22.284Z,3.40
2022-10-11T21:47:28.298Z,3.20
2022-10-11T21:52:31.821Z,4.20
2022-10-11T21:57:35.167Z,4.60
2022-10-11T22:02:38.543Z,3.50
2022-10-11T22:07:41.848Z,4.10
2022-10-11T22:12:45.260Z,3.40
2022-10-11T22:17:48.469Z,3.10
2022-10-11T22:22:51.989Z,3.40
2022-10-11T22:27:55.194Z,3.20
2022-10-11T22:32:58.433Z,2.90
2022-10-11T22:38:01.722Z,3.40
2022-10-11T22:43:04.968Z,4.00
2022-10-11T22:48:09.166Z,3.50
2022-10-11T22:53:14.379Z,3.20
2022-10-11T22:58:17.930Z,3.20
2022-10-11T23:03:21.433Z,3.40
2022-10-11T23:08:25.847Z,4.10
2022-10-11T23:13:29.120Z,3.20
2022-10-11T23:18:32.404Z,3.00
2022-10-11T23:23:35.956Z,2.90
2022-10-11T23:28:40.007Z,2.80
2022-10-11T23:33:45.140Z,3.40
2022-10-11T23:38:54.663Z,3.30
2022-10-11T23:43:58.908Z,3.40
2022-10-11T23:49:02.410Z,3.40
2022-10-11T23:54:06.215Z,3.20
2022-10-11T23:59:09.992Z,3.10
